createdAt,value
2019-02-16T00:01:13.770Z,2.62
2019-02-16T00:03:59.983Z,2.75
2019-02-16T00:06:45.851Z,2.83
2019-02-16T00:09:32.353Z,3.30
2019-02-16T00:12:18.612Z,2.87
2019-02-16T00:15:05.047Z,2.62
2019-02-16T00:17:52.467Z,2.90
2019-02-16T00:20:38.542Z,2.70
2019-02-16T00:23:25.911Z,2.87
2019-02-16T00:26:12.511Z,3.12
2019-02-16T00:28:59.028Z,2.95
2019-02-16T00:31:46.207Z,2.37
2019-02-16T00:34:32.243Z,2.60
2019-02-16T00:37:18.595Z,2.60
2019-02-16T00:40:05.406Z,2.92
2019-02-16T00:42:51.955Z,2.92
2019-02-16T00:45:38.313Z,2.52
2019-02-16T00:48:24.628Z,2.10
2019-02-16T00:51:13.508Z,2.27
2019-02-16T00:53:58.637Z,2.35
2019-02-16T00:56:44.995Z,2.52
2019-02-16T00:59:30.837Z,2.40
2019-02-16T01:02:17.078Z,2.70
2019-02-16T01:05:03.963Z,2.30
2019-02-16T01:07:51.945Z,2.98
2019-02-16T01:10:38.171Z,2.77
2019-02-16T01:13:23.939Z,2.47
2019-02-16T01:16:10.387Z,2.33
2019-02-16T01:18:57.203Z,2.30
2019-02-16T01:21:43.089Z,2.15
2019-02-16T01:24:29.511Z,3.70
2019-02-16T01:27:15.739Z,2.17
2019-02-16T01:30:01.709Z,2.72
2019-02-16T01:32:48.086Z,2.70
2019-02-16T01:35:34.391Z,2.30
2019-02-16T01:38:20.272Z,3.10
2019-02-16T01:41:07.044Z,2.15
2019-02-16T01:43:53.328Z,2.92
2019-02-16T01:46:39.875Z,2.00
2019-02-16T01:49:26.092Z,2.10
2019-02-16T01:52:12.524Z,2.65
2019-02-16T01:54:58.932Z,2.70
2019-02-16T01:57:45.303Z,2.22
2019-02-16T02:00:31.526Z,2.40
2019-02-16T02:03:19.179Z,2.37
2019-02-16T02:06:05.472Z,2.15
2019-02-16T02:08:51.524Z,2.42
2019-02-16T02:11:37.831Z,2.15
2019-02-16T02:14:24.133Z,1.80
2019-02-16T02:17:10.331Z,2.05
2019-02-16T02:19:56.244Z,2.75
2019-02-16T02:22:42.575Z,2.30
2019-02-16T02:25:28.959Z,2.20
2019-02-16T02:28:15.211Z,2.45
2019-02-16T02:31:01.183Z,2.20
2019-02-16T02:33:47.516Z,2.50
2019-02-16T02:36:33.720Z,1.50
2019-02-16T02:39:19.969Z,2.85
2019-02-16T02:42:06.019Z,2.60
2019-02-16T02:44:52.205Z,2.75
2019-02-16T02:47:38.123Z,1.92
2019-02-16T02:50:24.315Z,3.00
2019-02-16T02:53:10.292Z,2.62
2019-02-16T02:55:56.793Z,2.27
2019-02-16T02:58:44.045Z,1.75
2019-02-16T03:01:30.276Z,2.58
2019-02-16T03:04:16.552Z,2.80
2019-02-16T03:07:03.271Z,2.47
2019-02-16T03:09:49.628Z,1.87
2019-02-16T03:12:36.152Z,2.75
2019-02-16T03:15:22.492Z,2.80
2019-02-16T03:18:08.798Z,1.77
2019-02-16T03:20:55.245Z,2.47
2019-02-16T03:23:41.492Z,1.87
2019-02-16T03:27:12.703Z,2.45
2019-02-16T03:30:16.248Z,2.15
2019-02-16T03:33:39.347Z,2.65
2019-02-16T03:37:22.487Z,2.42
2019-02-16T03:40:08.596Z,2.52
2019-02-16T03:42:55.887Z,2.67
2019-02-16T03:45:42.266Z,2.37
2019-02-16T03:48:28.583Z,3.00
2019-02-16T03:51:14.775Z,1.77
2019-02-16T03:54:00.768Z,4.30
2019-02-16T03:56:46.560Z,2.20
2019-02-16T03:59:32.804Z,2.47
2019-02-16T04:02:19.354Z,1.85
2019-02-16T04:05:05.867Z,1.75
2019-02-16T04:07:51.988Z,3.10
2019-02-16T04:10:38.398Z,2.40
2019-02-16T04:13:24.818Z,2.15
2019-02-16T04:16:10.976Z,2.35
2019-02-16T04:18:57.415Z,2.05
2019-02-16T04:21:43.739Z,2.42
2019-02-16T04:24:30.196Z,2.58
2019-02-16T04:27:16.381Z,2.00
2019-02-16T04:30:03.006Z,2.25
2019-02-16T04:32:50.403Z,2.00
2019-02-16T04:35:36.844Z,3.02
2019-02-16T04:38:23.144Z,2.45
2019-02-16T04:41:09.566Z,1.95
2019-02-16T04:43:55.732Z,2.20
2019-02-16T04:46:41.947Z,1.95
2019-02-16T04:49:27.821Z,2.52
2019-02-16T04:52:14.196Z,2.25
2019-02-16T04:55:00.019Z,1.70
2019-02-16T04:57:47.062Z,1.95
2019-02-16T05:00:33.217Z,1.65
2019-02-16T05:03:19.661Z,2.70
2019-02-16T05:06:06.082Z,2.37
2019-02-16T05:08:53.648Z,2.10
2019-02-16T05:11:39.849Z,2.47
2019-02-16T05:14:27.303Z,1.80
2019-02-16T05:17:13.491Z,2.12
2019-02-16T05:19:59.911Z,1.95
2019-02-16T05:22:46.393Z,1.75
2019-02-16T05:25:32.953Z,2.02
2019-02-16T05:28:19.301Z,2.00
2019-02-16T05:31:05.969Z,1.75
2019-02-16T05:33:52.397Z,1.57
2019-02-16T05:36:38.847Z,1.85
2019-02-16T05:39:25.176Z,2.50
2019-02-16T05:42:11.273Z,2.52
2019-02-16T05:44:57.261Z,1.55
2019-02-16T05:47:43.891Z,2.10
2019-02-16T05:50:30.144Z,2.40
2019-02-16T05:53:16.142Z,2.12
2019-02-16T05:56:02.339Z,2.25
2019-02-16T05:58:48.595Z,2.37
2019-02-16T06:01:35.120Z,2.02
2019-02-16T06:04:21.593Z,3.00
2019-02-16T06:07:07.901Z,2.12
2019-02-16T06:09:54.303Z,2.08
2019-02-16T06:12:39.959Z,1.30
2019-02-16T06:15:26.089Z,2.30
2019-02-16T06:18:12.369Z,2.10
2019-02-16T06:20:58.664Z,2.10
2019-02-16T06:23:44.533Z,1.92
2019-02-16T06:26:30.782Z,1.92
2019-02-16T06:29:16.899Z,3.42
2019-02-16T06:32:03.503Z,2.05
2019-02-16T06:34:53.299Z,2.00
2019-02-16T06:37:39.931Z,1.60
2019-02-16T06:40:26.423Z,2.25
2019-02-16T06:43:12.444Z,1.55
2019-02-16T06:45:58.351Z,2.05
2019-02-16T06:48:44.416Z,1.92
2019-02-16T06:51:30.699Z,2.05
2019-02-16T06:54:17.060Z,2.00
2019-02-16T06:57:20.929Z,1.80
2019-02-16T07:00:08.080Z,2.10
2019-02-16T07:02:54.167Z,2.15
2019-02-16T07:05:40.348Z,1.98
2019-02-16T07:08:26.663Z,2.33
2019-02-16T07:11:13.460Z,2.15
2019-02-16T07:13:59.834Z,6.67
2019-02-16T07:17:07.741Z,14.30
2019-02-16T07:19:56.016Z,31.27
2019-02-16T07:22:42.724Z,40.48
2019-02-16T07:25:31.984Z,265.98
2019-02-16T07:28:18.525Z,981.38
2019-02-16T07:31:04.802Z,1630.68
2019-02-16T07:33:51.083Z,958.92
2019-02-16T07:36:37.632Z,1033.73
2019-02-16T07:39:23.911Z,747.65
2019-02-16T07:42:10.276Z,586.20
2019-02-16T07:45:04.451Z,494.05
2019-02-16T07:48:19.666Z,539.15
2019-02-16T07:51:37.392Z,464.05
2019-02-16T07:54:45.989Z,460.87
2019-02-16T07:57:53.986Z,340.25
2019-02-16T08:01:01.845Z,286.07
2019-02-16T08:04:05.924Z,204.38
2019-02-16T08:07:17.948Z,176.97
2019-02-16T08:10:22.625Z,232.10
2019-02-16T08:13:43.815Z,181.05
2019-02-16T08:17:01.156Z,155.18
2019-02-16T08:20:05.070Z,181.93
2019-02-16T08:23:22.611Z,168.28
2019-02-16T08:26:28.231Z,145.62
2019-02-16T08:29:32.130Z,155.48
2019-02-16T08:32:27.573Z,140.28
2019-02-16T08:35:33.478Z,91.92
2019-02-16T08:38:38.325Z,66.92
2019-02-16T08:41:52.684Z,77.55
2019-02-16T08:44:53.211Z,68.92
2019-02-16T08:48:00.611Z,80.75
2019-02-16T08:50:52.187Z,80.28
2019-02-16T08:53:49.562Z,80.85
2019-02-16T08:56:59.207Z,62.75
2019-02-16T09:00:10.404Z,129.85
2019-02-16T09:03:15.919Z,132.90
2019-02-16T09:06:16.385Z,108.10
2019-02-16T09:09:19.070Z,124.67
2019-02-16T09:12:30.455Z,112.47
2019-02-16T09:15:29.137Z,68.28
2019-02-16T09:18:39.716Z,69.67
2019-02-16T09:21:33.802Z,58.13
2019-02-16T09:24:41.996Z,52.35
2019-02-16T09:27:55.979Z,56.00
2019-02-16T09:31:00.164Z,36.13
2019-02-16T09:34:04.400Z,35.28
2019-02-16T09:37:15.675Z,38.48
2019-02-16T09:40:17.152Z,39.80
2019-02-16T09:43:25.497Z,30.90
2019-02-16T09:49:01.876Z,25.95
2019-02-16T09:52:13.693Z,35.55
2019-02-16T09:55:14.184Z,35.00
2019-02-16T09:58:28.979Z,32.65
2019-02-16T10:01:37.230Z,34.98
2019-02-16T10:04:51.988Z,21.73
2019-02-16T10:07:49.068Z,28.25
2019-02-16T10:10:57.060Z,26.57
2019-02-16T10:14:02.557Z,28.40
2019-02-16T10:17:02.567Z,40.67
2019-02-16T10:20:08.208Z,28.57
2019-02-16T10:23:12.243Z,24.30
2019-02-16T10:26:24.234Z,16.15
2019-02-16T10:29:28.209Z,19.20
2019-02-16T10:32:29.307Z,15.70
2019-02-16T10:35:36.685Z,88.67
2019-02-16T10:39:00.599Z,62.67
2019-02-16T10:42:02.836Z,82.70
2019-02-16T10:45:08.326Z,59.23
2019-02-16T10:48:11.711Z,68.62
2019-02-16T10:51:18.364Z,63.73
2019-02-16T10:54:28.076Z,37.25
2019-02-16T10:57:30.257Z,49.93
2019-02-16T11:00:31.764Z,44.65
2019-02-16T11:03:37.312Z,49.10
2019-02-16T11:06:45.497Z,45.65
2019-02-16T11:09:56.632Z,46.35
2019-02-16T11:13:10.608Z,39.35
2019-02-16T11:16:14.855Z,45.65
2019-02-16T11:19:19.304Z,27.02
2019-02-16T11:22:40.374Z,27.27
2019-02-16T11:25:35.431Z,31.23
2019-02-16T11:28:56.289Z,20.37
2019-02-16T11:31:57.163Z,19.82
2019-02-16T11:35:10.282Z,25.02
2019-02-16T11:38:18.333Z,21.95
2019-02-16T11:41:18.615Z,22.67
2019-02-16T11:44:09.642Z,30.25
2019-02-16T11:47:13.862Z,28.42
2019-02-16T11:50:23.116Z,31.35
2019-02-16T11:53:31.829Z,28.42
2019-02-16T11:56:28.259Z,22.50
2019-02-16T11:59:52.056Z,16.60
2019-02-16T12:02:56.145Z,16.75
2019-02-16T12:05:47.419Z,20.10
2019-02-16T12:08:52.305Z,20.00
2019-02-16T12:11:54.628Z,37.83
2019-02-16T12:14:54.505Z,31.75
2019-02-16T12:17:59.476Z,31.62
2019-02-16T12:21:13.614Z,32.98
2019-02-16T12:24:17.503Z,39.30
2019-02-16T12:27:35.139Z,32.33
2019-02-16T12:30:40.615Z,34.70
2019-02-16T12:33:41.455Z,27.50
2019-02-16T12:36:52.588Z,45.33
2019-02-16T12:39:58.021Z,22.27
2019-02-16T12:43:03.151Z,21.37
2019-02-16T12:45:55.575Z,38.05
2019-02-16T12:49:04.580Z,42.03
2019-02-16T12:52:24.739Z,47.08
2019-02-16T12:55:37.705Z,44.67
2019-02-16T12:58:32.506Z,44.98
2019-02-16T13:01:28.791Z,38.30
2019-02-16T13:04:40.071Z,38.85
2019-02-16T13:07:31.781Z,48.83
2019-02-16T13:10:37.327Z,40.33
2019-02-16T13:13:44.117Z,31.80
2019-02-16T13:16:38.415Z,41.20
2019-02-16T13:19:38.438Z,34.65
2019-02-16T13:22:49.740Z,36.38
2019-02-16T13:25:43.760Z,34.15
2019-02-16T13:28:43.711Z,32.98
2019-02-16T13:31:49.203Z,40.80
2019-02-16T13:34:50.301Z,27.62
2019-02-16T13:37:54.811Z,33.75
2019-02-16T13:40:52.573Z,35.85
2019-02-16T13:43:56.655Z,27.48
2019-02-16T13:47:08.223Z,31.62
2019-02-16T13:50:05.886Z,33.42
2019-02-16T13:53:17.441Z,30.48
2019-02-16T13:56:21.691Z,30.02
2019-02-16T13:59:42.975Z,25.97
2019-02-16T14:02:50.667Z,21.82
2019-02-16T14:05:59.153Z,19.42
2019-02-16T14:08:55.445Z,19.77
2019-02-16T14:12:01.071Z,24.25
2019-02-16T14:14:58.795Z,22.10
2019-02-16T14:17:47.321Z,16.37
2019-02-16T14:20:33.613Z,27.90
2019-02-16T14:23:19.995Z,12.05
2019-02-16T14:26:06.293Z,11.48
2019-02-16T14:28:52.644Z,17.27
2019-02-16T14:31:38.853Z,20.88
2019-02-16T14:34:25.070Z,15.20
2019-02-16T14:37:29.431Z,16.15
2019-02-16T14:40:15.643Z,12.47
2019-02-16T14:43:02.015Z,15.88
2019-02-16T14:45:48.345Z,28.62
2019-02-16T14:48:34.672Z,36.55
2019-02-16T14:51:21.975Z,26.37
2019-02-16T14:54:07.904Z,23.80
2019-02-16T14:56:54.204Z,34.58
2019-02-16T14:59:40.043Z,22.37
2019-02-16T15:02:26.460Z,48.85
2019-02-16T15:05:12.880Z,63.28
2019-02-16T15:07:59.361Z,59.08
2019-02-16T15:10:45.963Z,39.50
2019-02-16T15:13:32.187Z,65.95
2019-02-16T15:16:18.513Z,54.00
2019-02-16T15:19:05.040Z,40.98
2019-02-16T15:21:51.560Z,47.70
2019-02-16T15:24:37.872Z,46.35
2019-02-16T15:27:23.685Z,51.70
2019-02-16T15:30:11.687Z,28.17
2019-02-16T15:32:59.450Z,41.75
2019-02-16T15:35:45.976Z,48.45
2019-02-16T15:38:32.255Z,42.55
2019-02-16T15:41:18.463Z,30.45
2019-02-16T15:44:04.968Z,26.15
2019-02-16T15:46:51.310Z,29.92
2019-02-16T15:49:37.731Z,22.42
2019-02-16T15:52:24.142Z,24.40
2019-02-16T15:55:10.607Z,17.90
2019-02-16T15:57:56.503Z,22.42
2019-02-16T16:00:42.834Z,18.52
2019-02-16T16:03:28.990Z,51.08
2019-02-16T16:06:15.356Z,23.57
2019-02-16T16:09:21.904Z,19.32
2019-02-16T16:12:30.804Z,27.02
2019-02-16T16:15:27.097Z,19.15
2019-02-16T16:18:37.100Z,22.27
2019-02-16T16:21:51.512Z,26.62
2019-02-16T16:24:54.451Z,29.67
2019-02-16T16:27:47.782Z,21.23
2019-02-16T16:31:08.241Z,14.00
2019-02-16T16:34:04.571Z,13.68
2019-02-16T16:37:10.358Z,15.80
2019-02-16T16:40:13.320Z,23.83
2019-02-16T16:43:12.976Z,37.67
2019-02-16T16:46:23.884Z,18.45
2019-02-16T16:49:29.370Z,21.73
2019-02-16T16:52:33.484Z,17.07
2019-02-16T16:55:56.864Z,111.30
2019-02-16T16:59:01.052Z,270.97
2019-02-16T17:02:10.542Z,279.98
2019-02-16T17:05:16.549Z,320.55
2019-02-16T17:08:22.206Z,302.85
2019-02-16T17:11:34.299Z,299.45
2019-02-16T17:14:48.459Z,295.52
2019-02-16T17:18:05.932Z,260.65
2019-02-16T17:21:14.350Z,250.15
2019-02-16T17:24:19.432Z,234.95
2019-02-16T17:27:19.939Z,233.38
2019-02-16T17:30:24.529Z,237.15
2019-02-16T17:33:22.983Z,223.10
2019-02-16T17:36:31.283Z,197.35
2019-02-16T17:39:45.676Z,190.97
2019-02-16T17:42:47.495Z,185.30
2019-02-16T17:46:00.235Z,201.12
2019-02-16T17:49:01.791Z,222.73
2019-02-16T17:52:19.087Z,187.92
2019-02-16T17:55:27.417Z,184.30
2019-02-16T17:58:33.120Z,167.70
2019-02-16T18:01:39.159Z,176.70
2019-02-16T18:04:56.753Z,141.53
2019-02-16T18:08:04.881Z,166.77
2019-02-16T18:11:22.095Z,165.80
2019-02-16T18:14:27.663Z,130.87
2019-02-16T18:17:39.424Z,168.50
2019-02-16T18:20:37.867Z,184.22
2019-02-16T18:23:48.793Z,219.72
2019-02-16T18:26:43.320Z,170.12
2019-02-16T18:29:54.675Z,176.93
2019-02-16T18:33:08.328Z,167.90
2019-02-16T18:36:20.138Z,186.45
2019-02-16T18:39:15.392Z,166.32
2019-02-16T18:42:22.593Z,136.77
2019-02-16T18:45:40.390Z,162.82
2019-02-16T18:48:37.327Z,125.40
2019-02-16T18:51:46.535Z,160.00
2019-02-16T18:54:39.411Z,153.12
2019-02-16T18:57:39.766Z,126.67
2019-02-16T19:00:57.837Z,122.17
2019-02-16T19:03:52.586Z,131.57
2019-02-16T19:06:53.610Z,145.80
2019-02-16T19:10:14.065Z,116.22
2019-02-16T19:13:18.219Z,101.92
2019-02-16T19:16:26.923Z,112.15
2019-02-16T19:19:21.004Z,121.35
2019-02-16T19:22:35.838Z,107.52
2019-02-16T19:25:29.519Z,104.65
2019-02-16T19:28:53.311Z,75.57
2019-02-16T19:32:02.029Z,83.30
2019-02-16T19:35:06.869Z,84.25
2019-02-16T19:38:14.884Z,78.33
2019-02-16T19:41:07.728Z,75.10
2019-02-16T19:44:14.555Z,75.80
2019-02-16T19:47:18.310Z,71.30
2019-02-16T19:50:33.514Z,79.22
2019-02-16T19:53:38.199Z,65.95
2019-02-16T19:56:37.527Z,63.23
2019-02-16T19:59:31.962Z,77.05
2019-02-16T20:02:40.335Z,58.30
2019-02-16T20:05:46.211Z,57.50
2019-02-16T20:09:09.838Z,52.78
2019-02-16T20:12:03.550Z,57.78
2019-02-16T20:15:24.275Z,58.23
2019-02-16T20:18:24.163Z,56.20
2019-02-16T20:21:35.338Z,52.05
2019-02-16T20:24:37.149Z,51.30
2019-02-16T20:27:37.383Z,54.77
2019-02-16T20:30:55.491Z,41.20
2019-02-16T20:34:03.631Z,45.23
2019-02-16T20:36:54.944Z,54.75
2019-02-16T20:39:57.453Z,56.15
2019-02-16T20:43:05.912Z,69.65
2019-02-16T20:46:05.371Z,51.65
2019-02-16T20:49:17.180Z,43.25
2019-02-16T20:52:13.695Z,44.05
2019-02-16T20:55:22.764Z,41.35
2019-02-16T20:58:30.824Z,75.10
2019-02-16T21:01:23.373Z,50.85
2019-02-16T21:04:32.783Z,36.68
2019-02-16T21:07:44.755Z,39.60
2019-02-16T21:10:50.241Z,49.58
2019-02-16T21:13:43.684Z,45.98
2019-02-16T21:16:57.316Z,43.30
2019-02-16T21:20:03.412Z,43.25
2019-02-16T21:23:08.331Z,44.63
2019-02-16T21:26:12.284Z,43.95
2019-02-16T21:29:12.793Z,51.02
2019-02-16T21:32:05.371Z,47.80
2019-02-16T21:34:57.122Z,33.58
2019-02-16T21:38:01.175Z,29.98
2019-02-16T21:41:06.915Z,44.88
2019-02-16T21:44:21.011Z,41.08
2019-02-16T21:47:26.612Z,33.48
2019-02-16T21:50:28.251Z,36.88
2019-02-16T21:53:26.776Z,49.25
2019-02-16T21:56:26.848Z,38.67
2019-02-16T21:59:42.125Z,50.28
2019-02-16T22:02:49.431Z,32.17
2019-02-16T22:05:53.046Z,30.88
2019-02-16T22:08:52.399Z,27.37
2019-02-16T22:11:51.758Z,28.60
2019-02-16T22:14:37.975Z,23.75
2019-02-16T22:17:24.663Z,26.68
2019-02-16T22:20:10.880Z,32.63
2019-02-16T22:22:57.000Z,26.00
2019-02-16T22:25:43.458Z,23.10
2019-02-16T22:28:31.157Z,26.07
2019-02-16T22:31:18.001Z,22.73
2019-02-16T22:34:03.995Z,29.18
2019-02-16T22:36:50.462Z,20.52
2019-02-16T22:39:36.212Z,19.73
2019-02-16T22:42:22.933Z,23.35
2019-02-16T22:45:09.476Z,18.10
2019-02-16T22:47:55.651Z,20.50
2019-02-16T22:50:41.596Z,21.35
2019-02-16T22:53:28.019Z,23.77
2019-02-16T22:56:14.297Z,20.65
2019-02-16T22:59:00.635Z,19.73
2019-02-16T23:01:46.889Z,19.20
2019-02-16T23:04:33.451Z,19.32
2019-02-16T23:07:19.724Z,17.27
2019-02-16T23:10:08.996Z,18.35
2019-02-16T23:12:55.705Z,21.30
2019-02-16T23:15:42.396Z,16.57
2019-02-16T23:18:28.488Z,18.32
2019-02-16T23:21:14.764Z,17.50
2019-02-16T23:24:00.681Z,17.48
2019-02-16T23:26:47.068Z,17.50
2019-02-16T23:29:33.391Z,13.40
2019-02-16T23:32:19.428Z,15.25
2019-02-16T23:35:05.968Z,14.93
2019-02-16T23:37:52.252Z,13.05
2019-02-16T23:40:38.175Z,16.80
2019-02-16T23:43:24.603Z,14.45
2019-02-16T23:46:10.773Z,15.75
2019-02-16T23:48:57.199Z,12.88
2019-02-16T23:51:43.063Z,14.15
2019-02-16T23:54:28.987Z,12.78
2019-02-16T23:57:15.260Z,15.00
